createdAt,value
2017-12-22T00:00:02.942Z,1032.62
2017-12-22T00:05:02.779Z,1032.62
2017-12-22T00:10:03.428Z,1032.48
2017-12-22T00:15:03.042Z,1032.47
2017-12-22T00:20:02.730Z,1032.35
2017-12-22T00:25:03.296Z,1032.28
2017-12-22T00:30:02.935Z,1032.29
2017-12-22T00:35:03.454Z,1032.23
2017-12-22T00:40:03.155Z,1032.21
2017-12-22T00:45:02.843Z,1032.17
2017-12-22T00:50:03.530Z,1032.11
2017-12-22T00:55:03.089Z,1032.14
2017-12-22T01:00:03.496Z,1032.13
2017-12-22T01:05:03.363Z,1032.14
2017-12-22T01:10:02.881Z,1032.09
2017-12-22T01:15:03.496Z,1032
2017-12-22T01:20:03.134Z,1032.06
2017-12-22T01:25:03.695Z,1032
2017-12-22T01:30:03.304Z,1032.06
2017-12-22T01:35:02.827Z,1032.04
2017-12-22T01:40:03.391Z,1031.99
2017-12-22T01:45:03.042Z,1031.96
2017-12-22T01:50:03.626Z,1031.95
2017-12-22T01:55:03.080Z,1031.88
2017-12-22T02:00:03.533Z,1031.88
2017-12-22T02:05:02.928Z,1031.84
2017-12-22T02:10:03.498Z,1031.83
2017-12-22T02:15:02.948Z,1031.76
2017-12-22T02:20:03.584Z,1031.67
2017-12-22T02:25:02.945Z,1031.61
2017-12-22T02:30:03.649Z,1031.57
2017-12-22T02:35:03.176Z,1031.6
2017-12-22T02:40:03.654Z,1031.54
2017-12-22T02:45:03.097Z,1031.51
2017-12-22T02:50:03.641Z,1031.49
2017-12-22T02:55:03.140Z,1031.41
2017-12-22T03:00:02.740Z,1031.4
2017-12-22T03:05:03.353Z,1031.34
2017-12-22T03:10:03.120Z,1031.22
2017-12-22T03:15:03.700Z,1031.25
2017-12-22T03:20:03.292Z,1031.25
2017-12-22T03:25:02.857Z,1031.26
2017-12-22T03:30:03.498Z,1031.22
2017-12-22T03:35:02.896Z,1031.21
2017-12-22T03:40:03.514Z,1031.19
2017-12-22T03:45:03.092Z,1031.18
2017-12-22T03:50:03.615Z,1031.21
2017-12-22T03:55:03.188Z,1031.14
2017-12-22T04:00:02.867Z,1031.09
2017-12-22T04:05:03.464Z,1031.02
2017-12-22T04:10:03.043Z,1030.99
2017-12-22T04:15:03.540Z,1031.01
2017-12-22T04:20:03.084Z,1031.06
2017-12-22T04:25:03.479Z,1031.11
2017-12-22T04:30:03.119Z,1031.09
2017-12-22T04:35:02.757Z,1031.01
2017-12-22T04:40:03.464Z,1031.04
2017-12-22T04:45:02.913Z,1031
2017-12-22T04:50:03.523Z,1030.98
2017-12-22T04:55:03.126Z,1030.94
2017-12-22T05:00:03.086Z,1031.01
2017-12-22T05:05:02.720Z,1031.05
2017-12-22T05:10:03.234Z,1031.05
2017-12-22T05:15:02.822Z,1031.01
2017-12-22T05:20:03.287Z,1031.06
2017-12-22T05:25:02.866Z,1031.05
2017-12-22T05:30:03.242Z,1031.07
2017-12-22T05:35:02.881Z,1031.1
2017-12-22T05:40:03.391Z,1031
2017-12-22T05:45:03.009Z,1031.01
2017-12-22T05:50:03.528Z,1031.08
2017-12-22T05:55:03.126Z,1031.05
2017-12-22T06:00:03.650Z,1031.04
2017-12-22T06:05:03.298Z,1031.01
2017-12-22T06:10:02.850Z,1030.96
2017-12-22T06:15:03.288Z,1030.99
2017-12-22T06:20:03.378Z,1030.95
2017-12-22T06:25:02.821Z,1030.96
2017-12-22T06:30:03.368Z,1031.02
2017-12-22T06:35:02.835Z,1031.11
2017-12-22T06:40:03.347Z,1031.16
2017-12-22T06:45:02.771Z,1031.21
2017-12-22T06:50:03.305Z,1031.23
2017-12-22T06:55:02.774Z,1031.29
2017-12-22T07:00:03.346Z,1031.35
2017-12-22T07:05:03.255Z,1031.41
2017-12-22T07:10:02.897Z,1031.39
2017-12-22T07:15:03.346Z,1031.38
2017-12-22T07:20:02.981Z,1031.33
2017-12-22T07:25:03.374Z,1031.22
2017-12-22T07:30:02.817Z,1031.33
2017-12-22T07:35:03.263Z,1031.41
2017-12-22T07:40:02.934Z,1031.5
2017-12-22T07:45:03.535Z,1031.59
2017-12-22T07:50:03.125Z,1031.54
2017-12-22T07:55:03.531Z,1031.48
2017-12-22T08:00:03.184Z,1031.54
2017-12-22T08:05:03.608Z,1031.49
2017-12-22T08:10:03.380Z,1031.67
2017-12-22T08:15:03.003Z,1031.83
2017-12-22T08:20:03.432Z,1032
2017-12-22T08:25:02.948Z,1031.98
2017-12-22T08:30:03.796Z,1032.14
2017-12-22T08:35:03.226Z,1032.16
2017-12-22T08:40:02.707Z,1032.25
2017-12-22T08:45:03.048Z,1032.28
2017-12-22T08:50:03.466Z,1032.29
2017-12-22T08:55:02.958Z,1032.32
2017-12-22T09:00:03.394Z,1032.44
2017-12-22T09:05:02.867Z,1032.49
2017-12-22T09:10:03.667Z,1032.45
2017-12-22T09:15:03.205Z,1032.53
2017-12-22T09:20:02.827Z,1032.63
2017-12-22T09:25:03.463Z,1032.6
2017-12-22T09:30:02.953Z,1032.6
2017-12-22T09:35:03.468Z,1032.7
2017-12-22T09:40:03.120Z,1032.67
2017-12-22T09:45:03.530Z,1032.73
2017-12-22T09:50:03.136Z,1032.74
2017-12-22T09:55:03.593Z,1032.75
2017-12-22T10:00:03.320Z,1032.84
2017-12-22T10:05:02.865Z,1032.85
2017-12-22T10:10:03.572Z,1032.91
2017-12-22T10:15:03.264Z,1032.98
2017-12-22T10:20:02.760Z,1033.01
2017-12-22T10:25:03.110Z,1033.05
2017-12-22T10:30:03.559Z,1033.1
2017-12-22T10:35:03.089Z,1033.07
2017-12-22T10:40:02.816Z,1033.22
2017-12-22T10:45:03.263Z,1033.08
2017-12-22T10:50:03.687Z,1033.01
2017-12-22T10:55:03.120Z,1032.98
2017-12-22T11:00:02.781Z,1033.06
2017-12-22T11:05:03.432Z,1033.04
2017-12-22T11:10:03.100Z,1032.99
2017-12-22T11:15:02.767Z,1032.91
2017-12-22T11:20:03.340Z,1032.88
2017-12-22T11:25:02.844Z,1032.87
2017-12-22T11:30:03.276Z,1032.91
2017-12-22T11:35:02.943Z,1032.83
2017-12-22T11:40:03.423Z,1032.94
2017-12-22T11:45:02.828Z,1032.92
2017-12-22T11:50:03.497Z,1032.94
2017-12-22T11:55:02.998Z,1032.99
2017-12-22T12:00:03.555Z,1033.01
2017-12-22T12:05:03.073Z,1032.94
2017-12-22T12:10:03.626Z,1032.96
2017-12-22T12:15:03.276Z,1033.05
2017-12-22T12:20:02.695Z,1033.04
2017-12-22T12:25:03.279Z,1033.07
2017-12-22T12:30:02.749Z,1033.08
2017-12-22T12:35:03.367Z,1033.06
2017-12-22T12:40:03.055Z,1033.1
2017-12-22T12:45:03.585Z,1033.01
2017-12-22T12:50:03.147Z,1033.01
2017-12-22T12:55:02.725Z,1033.01
2017-12-22T13:00:03.182Z,1033.01
2017-12-22T13:05:02.942Z,1032.94
2017-12-22T13:10:03.520Z,1032.86
2017-12-22T13:15:03.040Z,1032.75
2017-12-22T13:20:02.751Z,1032.78
2017-12-22T13:25:03.388Z,1032.79
2017-12-22T13:30:02.985Z,1032.8
2017-12-22T13:35:03.407Z,1032.71
2017-12-22T13:40:02.863Z,1032.83
2017-12-22T13:45:03.205Z,1032.88
2017-12-22T13:50:02.719Z,1032.81
2017-12-22T13:55:03.173Z,1032.75
2017-12-22T14:00:03.688Z,1032.93
2017-12-22T14:05:03.155Z,1032.87
2017-12-22T14:10:03.703Z,1032.85
2017-12-22T14:15:03.239Z,1032.89
2017-12-22T14:20:02.904Z,1032.86
2017-12-22T14:25:03.534Z,1032.84
2017-12-22T14:30:02.957Z,1033.05
2017-12-22T14:35:03.583Z,1033.18
2017-12-22T14:40:03.332Z,1033.28
2017-12-22T14:45:02.881Z,1033.25
2017-12-22T14:50:03.525Z,1033.3
2017-12-22T14:55:02.942Z,1033.35
2017-12-22T15:00:03.520Z,1033.36
2017-12-22T15:05:03.205Z,1033.35
2017-12-22T15:10:02.792Z,1033.4
2017-12-22T15:15:03.283Z,1033.42
2017-12-22T15:20:02.923Z,1033.53
2017-12-22T15:25:03.311Z,1033.51
2017-12-22T15:30:02.886Z,1033.54
2017-12-22T15:35:03.535Z,1033.58
2017-12-22T15:40:03.269Z,1033.57
2017-12-22T15:45:02.768Z,1033.63
2017-12-22T15:50:03.477Z,1033.73
2017-12-22T15:55:02.928Z,1033.73
2017-12-22T16:00:03.554Z,1033.68
2017-12-22T16:05:03.352Z,1033.69
2017-12-22T16:10:03.024Z,1033.69
2017-12-22T16:15:03.588Z,1033.73
2017-12-22T16:20:03.232Z,1033.64
2017-12-22T16:25:02.856Z,1033.68
2017-12-22T16:30:03.273Z,1033.67
2017-12-22T16:35:03.005Z,1033.8
2017-12-22T16:40:03.693Z,1033.91
2017-12-22T16:45:03.184Z,1033.97
2017-12-22T16:50:02.916Z,1034.01
2017-12-22T16:55:03.325Z,1033.94
2017-12-22T17:00:02.909Z,1034.03
2017-12-22T17:05:03.466Z,1034.03
2017-12-22T17:10:03.220Z,1034.08
2017-12-22T17:15:03.684Z,1034.14
2017-12-22T17:20:03.042Z,1034.18
2017-12-22T17:25:03.440Z,1034.18
2017-12-22T17:30:03.014Z,1034.1
2017-12-22T17:35:02.741Z,1034.07
2017-12-22T17:40:03.357Z,1033.97
2017-12-22T17:45:02.831Z,1033.99
2017-12-22T17:50:03.386Z,1034.07
2017-12-22T17:55:02.825Z,1034.2
2017-12-22T18:00:03.417Z,1034.31
2017-12-22T18:05:03.038Z,1034.36
2017-12-22T18:10:02.685Z,1034.4
2017-12-22T18:15:03.318Z,1034.5
2017-12-22T18:20:02.981Z,1034.48
2017-12-22T18:25:03.412Z,1034.4
2017-12-22T18:30:02.879Z,1034.41
2017-12-22T18:35:03.553Z,1034.34
2017-12-22T18:40:03.205Z,1034.4
2017-12-22T18:45:02.854Z,1034.42
2017-12-22T18:50:03.428Z,1034.62
2017-12-22T18:55:02.818Z,1034.62
2017-12-22T19:00:03.480Z,1034.69
2017-12-22T19:05:02.894Z,1034.76
2017-12-22T19:10:03.608Z,1034.75
2017-12-22T19:15:03.043Z,1034.56
2017-12-22T19:20:03.579Z,1034.59
2017-12-22T19:25:03.006Z,1034.61
2017-12-22T19:30:03.559Z,1034.64
2017-12-22T19:35:03.398Z,1034.53
2017-12-22T19:40:02.835Z,1034.47
2017-12-22T19:45:03.475Z,1034.51
2017-12-22T19:50:03.120Z,1034.48
2017-12-22T19:55:03.624Z,1034.64
2017-12-22T20:00:03.210Z,1034.62
2017-12-22T20:05:03.661Z,1034.69
2017-12-22T20:10:03.205Z,1034.67
2017-12-22T20:15:02.753Z,1034.67
2017-12-22T20:20:03.288Z,1034.63
2017-12-22T20:25:02.971Z,1034.57
2017-12-22T20:30:03.444Z,1034.57
2017-12-22T20:35:03.122Z,1034.51
2017-12-22T20:40:03.615Z,1034.49
2017-12-22T20:45:03.087Z,1034.48
2017-12-22T20:50:02.779Z,1034.57
2017-12-22T20:55:03.313Z,1034.54
2017-12-22T21:00:02.916Z,1034.5
2017-12-22T21:05:03.494Z,1034.58
2017-12-22T21:10:03.178Z,1034.5
2017-12-22T21:15:02.843Z,1034.49
2017-12-22T21:20:03.344Z,1034.37
2017-12-22T21:25:02.929Z,1034.56
2017-12-22T21:30:03.557Z,1034.61
2017-12-22T21:35:02.945Z,1034.61
2017-12-22T21:40:03.369Z,1034.65
2017-12-22T21:45:02.840Z,1034.67
2017-12-22T21:50:03.564Z,1034.75
2017-12-22T21:55:03.226Z,1034.74
2017-12-22T22:00:02.923Z,1034.79
2017-12-22T22:05:03.603Z,1034.74
2017-12-22T22:10:03.363Z,1034.89
2017-12-22T22:15:03.049Z,1034.88
2017-12-22T22:20:02.707Z,1034.89
2017-12-22T22:25:03.339Z,1034.9
2017-12-22T22:30:03.109Z,1034.98
2017-12-22T22:35:03.616Z,1035.02
2017-12-22T22:40:03.369Z,1034.92
2017-12-22T22:45:02.883Z,1034.77
2017-12-22T22:50:03.250Z,1034.72
2017-12-22T22:55:03.678Z,1034.66
2017-12-22T23:00:03.292Z,1034.56
2017-12-22T23:05:02.860Z,1034.56
2017-12-22T23:10:03.362Z,1034.51
2017-12-22T23:15:02.768Z,1034.48
2017-12-22T23:20:03.346Z,1034.39
2017-12-22T23:25:02.968Z,1034.3
2017-12-22T23:30:03.580Z,1034.23
2017-12-22T23:35:03.226Z,1034.31
2017-12-22T23:40:02.687Z,1034.26
2017-12-22T23:45:03.392Z,1034.38
2017-12-22T23:50:03.023Z,1034.29
2017-12-22T23:55:03.479Z,1034.29
